Latest Weather Observations for Mount Ginini

IDN60801

Issued at 12:33 pm EST Friday 1 July 2016 (issued every 30 minutes, with the page automatically refreshed every 10 minutes)

About weather observations | Map of weather stations | Latest weather observations for NSW | Other Formats
Station Details ID: 070349 Name: MOUNT GININI AWS Lat: -35.53 Lon: 148.77 Height: 1760.0 m
Data from the previous 72 hours. | See also: Recent months at Mount Ginini
Date/Time
EST
Temp
°C
App
Temp
°C
Dew
Point
°C
Rel
Hum
%
Delta-T
°C
Wind Press
QNH
hPa
Press
MSL
hPa
Rain since
9am
mm
Dir  Spd
km/h
Gust
km/h
Spd
kts
Gust
kts
01/12:30pm -1.5 -6.6 -1.6 99 0.0 SW 15 24 8 13 - - 0.2
01/12:00pm -1.6 -7.6 -1.7 99 0.0 S 20 43 11 23 - - 0.2
01/11:30am -2.4 -6.5 -2.7 98 0.0 SSW 9 15 5 8 - - 0.2
01/11:00am -2.9 -7.0 -3.2 98 0.0 SSW 9 11 5 6 - - 0.2
01/10:30am -3.2 -7.4 -3.5 98 0.0 SSW 9 13 5 7 - - 0.2
01/10:00am -3.5 -8.8 -3.8 98 -0.1 SSW 15 20 8 11 - - 0.0
01/09:30am -3.8 -9.2 -4.1 98 -0.1 SSW 15 22 8 12 - - 0.0
01/09:00am -3.7 -7.9 -4.0 98 -0.1 SW 9 19 5 10 - - 11.2
01/08:30am -3.7 -8.7 -4.0 98 -0.1 SW 13 20 7 11 - - 11.2
01/08:00am -3.7 -8.7 -4.0 98 -0.1 WSW 13 20 7 11 - - 10.8
01/07:30am -3.7 -9.0 -4.0 98 -0.1 WSW 15 28 8 15 - - 10.6
01/07:00am -3.8 -8.8 -4.1 98 -0.1 W 13 19 7 10 - - 10.4
01/06:30am -3.8 -8.8 -4.1 98 -0.1 W 13 19 7 10 - - 10.2
01/06:00am -3.8 -8.4 -4.1 98 -0.1 WSW 11 19 6 10 - - 10.0
01/05:30am -3.8 -8.0 -4.1 98 -0.1 WSW 9 17 5 9 - - 9.6
01/05:00am -3.9 -8.1 -4.2 98 -0.1 WSW 9 24 5 13 - - 9.4
01/04:30am -4.1 -9.1 -4.4 98 -0.1 WSW 13 26 7 14 - - 9.2
01/04:00am -4.1 -9.9 -4.4 98 -0.1 W 17 32 9 17 - - 9.2
01/03:30am -4.1 -10.4 -4.4 98 -0.1 W 20 33 11 18 - - 9.2
01/03:00am -4.0 -10.7 -4.3 98 -0.1 W 22 41 12 22 - - 9.2
01/02:30am -3.9 -10.0 -4.2 98 -0.1 W 19 41 10 22 - - 9.2
01/02:00am -3.9 -8.9 -4.2 98 -0.1 W 13 30 7 16 - - 9.0
01/01:30am -3.6 -8.6 -3.9 98 -0.1 WSW 13 28 7 15 - - 8.8
01/01:00am -3.6 -8.6 -3.9 98 -0.1 WSW 13 26 7 14 - - 8.2
01/12:30am -3.2 -8.9 -3.5 98 0.0 WSW 17 33 9 18 - - 8.0
01/12:00am -2.7 -7.9 -3.0 98 0.0 WSW 15 32 8 17 - - 7.0
 
Date/Time
EST
Temp
°C
App
Temp
°C
Dew
Point
°C
Rel
Hum
%
Delta-T
°C
Wind Press
QNH
hPa
Press
MSL
hPa
Rain since
9am
mm
Dir  Spd
km/h
Gust
km/h
Spd
kts
Gust
kts
30/11:30pm -2.4 -8.0 -2.5 99 -0.1 W 17 39 9 21 - - 5.8
30/11:00pm -1.5 -7.5 -1.6 99 0.0 NW 20 32 11 17 - - 4.8
30/10:30pm -1.0 -8.1 -1.1 99 0.0 NW 26 46 14 25 - - 3.8
30/10:00pm -0.8 -7.9 -0.9 99 0.0 NW 26 52 14 28 - - 3.0
30/09:30pm -1.0 -8.5 -1.1 99 0.0 NW 28 52 15 28 - - 2.4
30/09:02pm -1.2 -9.1 -1.3 99 0.0 WNW 30 48 16 26 - - 1.8
30/09:00pm -1.2 -9.1 -1.3 99 0.0 WNW 30 46 16 25 - - 1.6
30/08:30pm -1.5 -10.0 -1.6 99 0.0 WNW 33 57 18 31 - - 1.2
30/08:00pm -1.6 -9.5 -1.7 99 0.0 WNW 30 50 16 27 - - 0.8
30/07:30pm -2.0 -10.0 -2.1 99 -0.1 WNW 30 57 16 31 - - 0.4
30/07:00pm -2.2 -9.8 -2.3 99 -0.1 WNW 28 48 15 26 - - 0.2
30/06:30pm -2.4 -10.0 -2.5 99 -0.1 WNW 28 46 15 25 - - 0.2
30/06:22pm -2.4 -10.1 -2.7 98 0.0 WNW 28 46 15 25 - - 0.2
30/06:00pm -2.6 -9.2 -2.9 98 0.0 WNW 22 43 12 23 - - 0.0
30/05:30pm -2.8 -9.8 -3.1 98 0.0 WNW 24 43 13 23 - - 0.0
30/05:05pm -2.9 -10.6 -3.2 98 0.0 WNW 28 46 15 25 - - 0.0
30/05:00pm -2.9 -10.2 -3.2 98 0.0 WNW 26 43 14 23 - - 0.0
30/04:30pm -3.0 -10.0 -3.3 98 0.0 WNW 24 46 13 25 - - 0.0
30/04:00pm -2.9 -9.1 -3.2 98 0.0 WNW 20 41 11 22 - - 0.0
30/03:30pm -2.9 -9.5 -3.2 98 0.0 WNW 22 41 12 22 - - 0.0
30/03:00pm -2.9 -9.9 -3.2 98 0.0 WNW 24 43 13 23 - - 0.0
30/02:30pm -2.7 -10.4 -3.0 98 0.0 WNW 28 48 15 26 - - 0.0
30/02:09pm -2.8 -10.5 -3.1 98 0.0 WNW 28 52 15 28 - - 0.0
30/02:00pm -2.9 -9.9 -3.2 98 0.0 WNW 24 43 13 23 - - 0.0
30/01:30pm -2.8 -9.8 -3.1 98 0.0 WNW 24 43 13 23 - - 0.0
30/01:04pm -2.7 -10.4 -3.0 98 0.0 WNW 28 46 15 25 - - 0.0
30/01:00pm -2.7 -9.6 -3.0 98 0.0 WNW 24 46 13 25 - - 0.0
30/12:48pm -2.7 -10.4 -3.0 98 0.0 WNW 28 46 15 25 - - 0.0
30/12:30pm -2.7 -9.6 -3.0 98 0.0 WNW 24 41 13 22 - - 0.0
30/12:00pm -2.6 -10.3 -2.9 98 0.0 WNW 28 48 15 26 - - 0.0
30/11:54am -2.7 -10.4 -3.0 98 0.0 NW 28 48 15 26 - - 0.0
30/11:30am -2.5 -9.4 -2.8 98 0.0 WNW 24 52 13 28 - - 0.0
30/11:00am -2.5 -9.4 -2.8 98 0.0 NW 24 43 13 23 - - 0.0
30/10:30am -2.6 -8.8 -2.9 98 0.0 WNW 20 37 11 20 - - 0.0
30/10:00am -2.6 -8.8 -2.9 98 0.0 WNW 20 32 11 17 - - 0.0
30/09:30am -2.8 -9.4 -3.1 98 0.0 WNW 22 43 12 23 - - 0.0
30/09:00am -2.8 -9.0 -3.1 98 0.0 WNW 20 39 11 21 - - 0.0
30/08:30am -2.5 -8.5 -2.8 98 0.0 NW 19 37 10 20 - - 0.0
30/08:00am -2.6 -9.5 -2.9 98 0.0 WNW 24 39 13 21 - - 0.0
30/07:38am -2.6 -10.3 -3.0 97 0.0 NW 28 46 15 25 - - 0.0
30/07:30am -2.5 -9.1 -2.9 97 0.0 NW 22 41 12 22 - - 0.0
30/07:00am -2.8 -9.4 -3.3 96 0.0 NW 22 35 12 19 - - 0.0
30/06:30am -2.8 -9.4 -3.5 95 0.1 NW 22 37 12 20 - - 0.0
30/06:00am -2.7 -9.3 -3.4 95 0.1 NW 22 39 12 21 - - 0.0
30/05:30am -2.3 -9.5 -5.1 81 0.9 NW 24 41 13 22 - - 0.0
30/05:00am -1.9 -9.2 -6.4 71 1.4 NW 24 41 13 22 - - 0.0
30/04:30am -1.4 -8.8 -7.9 61 2.1 NW 24 41 13 22 - - 0.0
30/04:00am -1.6 -8.5 -6.3 70 1.5 NW 22 39 12 21 - - 0.0
30/03:30am -1.5 -8.8 -6.2 70 1.5 NW 24 43 13 23 - - 0.0
30/03:00am -1.5 -8.4 -6.1 71 1.5 NW 22 37 12 20 - - 0.0
30/02:30am -1.0 -8.3 -6.5 66 1.8 NW 24 39 13 21 - - 0.0
30/02:00am -0.6 -7.6 -7.0 62 2.1 NNW 22 39 12 21 - - 0.0
30/01:30am -0.3 -7.6 -6.7 62 2.2 NNW 24 44 13 24 - - 0.0
30/01:00am -0.2 -6.8 -7.2 59 2.4 NNW 20 33 11 18 - - 0.0
30/12:30am -0.3 -6.7 -7.3 59 2.3 NNW 19 35 10 19 - - 0.0
30/12:00am 0.1 -6.4 -7.8 55 2.6 NNW 19 32 10 17 - - 0.0
 
Date/Time
EST
Temp
°C
App
Temp
°C
Dew
Point
°C
Rel
Hum
%
Delta-T
°C
Wind Press
QNH
hPa
Press
MSL
hPa
Rain since
9am
mm
Dir  Spd
km/h
Gust
km/h
Spd
kts
Gust
kts
29/11:30pm 0.1 -6.0 -7.6 56 2.6 NNW 17 32 9 17 - - 0.0
29/11:00pm 0.1 -6.0 -7.2 58 2.5 N 17 30 9 16 - - 0.0
29/10:30pm 0.0 -5.6 -6.8 60 2.3 N 15 26 8 14 - - 0.0
29/10:00pm -0.4 -5.6 -5.8 67 1.9 N 13 24 7 13 - - 0.0
29/09:30pm -0.3 -5.5 -5.9 66 1.9 N 13 26 7 14 - - 0.0
29/09:00pm -0.2 -5.3 -5.0 70 1.7 NNW 13 20 7 11 - - 0.0
29/08:30pm -0.3 -5.6 -3.8 77 1.3 NNW 15 22 8 12 - - 0.0
29/08:00pm -0.3 -4.9 -1.3 93 0.4 NNW 13 22 7 12 - - 0.0
29/07:30pm -0.6 -4.5 -1.3 95 0.2 N 9 15 5 8 - - 0.0
29/07:00pm -0.6 -4.5 -1.2 96 0.2 N 9 17 5 9 - - 0.0
29/06:30pm -0.7 -4.6 -1.3 96 0.2 N 9 15 5 8 - - 0.0
29/06:00pm -0.3 -4.9 -1.0 95 0.3 NW 13 20 7 11 - - 0.0
29/05:30pm 0.0 -4.6 -0.7 95 0.3 NW 13 26 7 14 - - 0.0
29/05:00pm 0.6 -3.1 -0.1 95 0.3 NNW 9 15 5 8 - - 0.0
29/04:30pm 2.1 -1.8 1.1 93 0.4 NW 11 17 6 9 - - 0.0
29/04:00pm 3.1 -1.3 0.5 83 1.1 NW 13 20 7 11 - - 0.0
29/03:30pm 3.0 -1.0 0.4 83 1.1 NW 11 19 6 10 - - 0.0
29/03:00pm 3.2 -0.4 0.3 81 1.2 NW 9 19 5 10 - - 0.0
29/02:30pm 3.2 -0.2 -0.4 77 1.5 NW 7 19 4 10 - - 0.0
29/02:00pm 3.2 -1.0 -1.2 73 1.8 NW 11 20 6 11 - - 0.0
29/01:30pm 3.4 -0.6 -2.5 65 2.3 NW 9 19 5 10 - - 0.0
29/01:00pm 4.9 1.6 -1.3 64 2.6 NW 6 13 3 7 - - 0.0
29/12:30pm 4.5 1.1 -2.1 62 2.7 NW 6 11 3 6 - - 0.0
29/12:00pm 5.2 2.0 -3.1 55 3.3 NNW 4 11 2 6 - - 0.0
29/11:30am 4.3 0.8 -3.0 59 2.9 WNW 6 11 3 6 - - 0.0
29/11:00am 5.3 2.4 -4.0 51 3.6 NW 2 6 1 3 - - 0.0
29/10:30am 4.1 0.7 -5.4 50 3.5 NE 4 7 2 4 - - 0.0
29/10:00am 4.0 0.4 -3.7 57 3.0 NE 6 9 3 5 - - 0.0
29/09:30am 3.7 0.5 -3.8 58 2.9 NE 4 9 2 5 - - 0.0
29/09:00am 3.0 -0.3 -4.0 60 2.7 NNE 4 7 2 4 - - 0.0
29/08:30am 1.5 -2.1 -3.6 69 2.0 NE 6 9 3 5 - - 0.0
29/08:00am 0.2 -3.1 -4.8 69 1.8 NE 4 6 2 3 - - 0.0
29/07:30am -0.3 -4.2 -5.1 70 1.7 NE 7 9 4 5 - - 0.0
29/07:00am -0.3 -4.1 -5.9 66 1.9 NE 6 9 3 5 - - 0.0
29/06:30am 0.0 -3.9 -6.2 63 2.2 NE 6 7 3 4 - - 0.0
29/06:00am -0.5 -4.1 -7.3 60 2.3 NNE 4 7 2 4 - - 0.0
29/05:30am -0.2 -4.0 -5.8 66 2.0 NE 6 9 3 5 - - 0.0
29/05:00am -0.6 -4.6 -6.0 67 1.8 SSE 7 17 4 9 - - 0.0
29/04:30am -0.6 -5.5 -3.4 81 1.0 S 13 19 7 10 - - 0.0
29/04:00am -1.1 -7.5 -1.5 97 0.1 SSW 22 32 12 17 - - 0.0
29/03:30am -1.8 -8.6 -2.1 98 0.0 SSW 24 33 13 18 - - 0.0
29/03:00am -1.9 -9.1 -2.2 98 0.0 SSW 26 35 14 19 - - 0.0
29/02:30am -1.9 -9.5 -2.2 98 0.0 SSW 28 39 15 21 - - 0.0
29/02:00am -2.2 -9.8 -2.5 98 0.0 SSW 28 41 15 22 - - 0.0
29/01:30am -2.3 -9.2 -2.6 98 0.0 SSW 24 37 13 20 - - 0.0
29/01:00am -2.3 -8.4 -2.6 98 0.0 SSW 20 32 11 17 - - 0.0
29/12:30am -2.6 -8.6 -2.9 98 0.0 SSW 19 30 10 16 - - 0.0
29/12:00am -2.8 -9.4 -3.2 97 0.0 SSW 22 30 12 16 - - 0.0
 
Date/Time
EST
Temp
°C
App
Temp
°C
Dew
Point
°C
Rel
Hum
%
Delta-T
°C
Wind Press
QNH
hPa
Press
MSL
hPa
Rain since
9am
mm
Dir  Spd
km/h
Gust
km/h
Spd
kts
Gust
kts
28/11:30pm -2.5 -9.1 -3.0 96 0.1 SSW 22 30 12 16 - - 0.0
28/11:00pm -2.7 -9.3 -3.4 95 0.1 SSW 22 30 12 16 - - 0.0
28/10:30pm 0.2 -5.2 -4.2 72 1.6 SSW 15 20 8 11 - - 0.0
28/10:00pm -0.1 -5.9 -4.5 72 1.6 SSW 17 22 9 12 - - 0.0
28/09:30pm 0.2 -5.6 -4.4 71 1.7 S 17 24 9 13 - - 0.0
28/09:00pm -0.1 -5.5 -4.9 70 1.7 SSW 15 20 8 11 - - 0.0
28/08:30pm 0.3 -5.5 -5.1 67 2.0 S 17 24 9 13 - - 0.0
28/08:00pm -0.1 -6.3 -4.5 72 1.6 S 19 24 10 13 - - 0.0
28/07:30pm 0.0 -6.3 -5.4 67 1.9 S 19 24 10 13 - - 0.0
28/07:00pm 0.0 -6.8 -4.8 70 1.7 SSW 22 28 12 15 - - 0.0
28/06:30pm -0.4 -7.6 -2.0 89 0.6 S 26 33 14 18 - - 0.0
28/06:00pm -1.9 -9.2 -2.6 95 0.2 SSW 26 33 14 18 - - 0.0
28/05:30pm -2.6 -9.9 -3.1 96 0.1 SSW 26 33 14 18 - - 0.0
28/05:00pm -3.1 -10.1 -3.5 97 0.0 SSW 24 35 13 19 - - 0.0
28/04:30pm -2.4 -9.3 -2.9 96 0.1 SSW 24 35 13 19 - - 0.0
28/04:00pm -0.8 -6.6 -1.5 95 0.2 SW 19 26 10 14 - - 0.0
28/03:30pm -0.5 -6.5 -1.3 94 0.3 SW 20 30 11 16 - - 0.0
28/03:00pm -0.5 -6.5 -1.8 91 0.5 SW 20 30 11 16 - - 0.0
28/02:30pm 0.1 -4.9 -1.2 91 0.5 SW 15 26 8 14 - - 0.0
28/02:00pm 0.0 -5.2 -2.7 82 1.0 SW 15 24 8 13 - - 0.0
28/01:30pm -0.2 -5.4 -2.7 83 0.9 SW 15 24 8 13 - - 0.0
28/01:00pm -0.6 -6.9 -3.8 79 1.1 SW 20 28 11 15 - - 0.0

Other Formats:

Comma delimited format used in spreadsheet applications
http://www.bom.gov.au/fwo/IDN60801/IDN60801.95925.axf

JavaScript Object Notation format (JSON) in row-major order
http://www.bom.gov.au/fwo/IDN60801/IDN60801.95925.json